Time;durP1;ratioP1;P1;durP2;ratioP2;P2;SDS_P1;SDS_P2;PMS_P1;PMS_P2;Temp;Humidity;BMP_temperature;BMP_pressure;BME280_temperature;BME280_humidity;BME280_pressure;Samples;Min_cycle;Max_cycle;Signal;HPM_P1;HPM_P2
2022/11/20 00:01:10;;;;;;;7.77;5.40;;;4.80;99.90;;;;;;5114161;28;20206;-76
2022/11/20 00:03:38;;;;;;;8.27;5.10;;;4.80;99.90;;;;;;5124377;28;20209;-74
2022/11/20 00:06:11;;;;;;;7.73;5.43;;;4.70;99.90;;;;;;5114804;28;20206;-77
2022/11/20 00:08:39;;;;;;;7.93;5.03;;;4.80;99.90;;;;;;5114330;27;20675;-76
2022/11/20 00:11:10;;;;;;;8.03;5.00;;;4.90;99.90;;;;;;5114425;28;20226;-77
2022/11/20 00:13:44;;;;;;;7.27;5.10;;;4.80;99.90;;;;;;5127631;27;20582;-75
2022/11/20 00:16:14;;;;;;;6.43;4.80;;;4.90;99.90;;;;;;5127298;27;20206;-78
2022/11/20 00:18:44;;;;;;;6.67;5.20;;;4.90;99.90;;;;;;5113780;27;20259;-77
2022/11/20 00:21:16;;;;;;;7.07;4.90;;;4.90;99.90;;;;;;5113309;28;20234;-77
2022/11/20 00:23:45;;;;;;;6.03;4.80;;;4.90;99.90;;;;;;5113470;28;20214;-78
2022/11/20 00:26:15;;;;;;;6.10;4.57;;;4.90;99.90;;;;;;5114547;28;20210;-78
2022/11/20 00:28:49;;;;;;;6.80;4.90;;;4.90;99.90;;;;;;5114087;28;20653;-76
2022/11/20 00:31:21;;;;;;;7.13;5.07;;;4.90;99.90;;;;;;5114734;28;20217;-76
2022/11/20 00:33:49;;;;;;;7.47;5.20;;;4.90;99.90;;;;;;5113782;28;20221;-75
2022/11/20 00:36:19;;;;;;;6.80;4.90;;;4.90;99.90;;;;;;5114316;28;20207;-76
2022/11/20 00:38:52;;;;;;;6.60;4.90;;;4.90;99.90;;;;;;5119934;28;20304;-78
2022/11/20 00:41:21;;;;;;;7.13;4.77;;;4.90;99.90;;;;;;5119628;28;20182;-78
2022/11/20 00:43:51;;;;;;;6.50;4.30;;;5.00;99.90;;;;;;5113481;27;20214;-79
2022/11/20 00:46:21;;;;;;;5.23;4.60;;;4.90;99.90;;;;;;5105563;28;20217;-80
2022/11/20 00:48:49;;;;;;;6.07;4.60;;;4.90;99.90;;;;;;5114453;28;20217;-77
2022/11/20 00:51:23;;;;;;;6.40;4.53;;;4.90;99.90;;;;;;5113537;28;20621;-79
2022/11/20 00:53:51;;;;;;;6.63;4.67;;;4.90;99.90;;;;;;5112463;27;20216;-75
2022/11/20 00:56:20;;;;;;;6.63;4.63;;;4.90;99.90;;;;;;5112818;28;20206;-77
2022/11/20 00:58:51;;;;;;;7.13;5.10;;;4.90;99.90;;;;;;5113641;28;20241;-80
2022/11/20 01:01:21;;;;;;;5.43;4.63;;;4.90;99.90;;;;;;5113629;28;20199;-78
2022/11/20 01:03:51;;;;;;;6.60;5.03;;;4.90;99.90;;;;;;5113276;28;20640;-76
2022/11/20 01:06:27;;;;;;;6.20;4.87;;;4.90;99.90;;;;;;5113819;28;20207;-77
2022/11/20 01:09:03;;;;;;;5.30;4.80;;;4.80;99.90;;;;;;5112864;28;20576;-78
2022/11/20 01:11:36;;;;;;;5.83;4.50;;;4.90;99.90;;;;;;5120922;27;20224;-74
2022/11/20 01:14:07;;;;;;;6.70;5.17;;;4.80;99.90;;;;;;5135341;27;20205;-74
2022/11/20 01:16:37;;;;;;;9.17;5.33;;;4.90;99.90;;;;;;5114882;27;20297;-77
2022/11/20 01:19:08;;;;;;;6.67;5.30;;;4.80;99.90;;;;;;5138429;27;20209;-79
2022/11/20 01:21:38;;;;;;;6.83;5.30;;;4.80;99.90;;;;;;5140071;27;20300;-77
2022/11/20 01:24:13;;;;;;;7.40;5.43;;;4.80;99.90;;;;;;5141343;27;20230;-76
2022/11/20 01:26:43;;;;;;;6.33;4.90;;;4.80;99.90;;;;;;5142426;27;20294;-77
2022/11/20 01:29:18;;;;;;;6.60;5.23;;;4.80;99.90;;;;;;5134703;27;20189;-74
2022/11/20 01:31:47;;;;;;;7.07;5.53;;;4.80;99.90;;;;;;5135596;27;20216;-76
2022/11/20 01:34:22;;;;;;;6.10;5.00;;;4.80;99.90;;;;;;5114734;27;20313;-77
2022/11/20 01:36:51;;;;;;;7.10;5.30;;;4.80;99.90;;;;;;5116466;28;20247;-76
2022/11/20 01:39:21;;;;;;;6.30;5.07;;;4.80;99.90;;;;;;5114285;28;20222;-73
2022/11/20 01:44:54;;;;;;;5.90;4.63;;;4.70;99.90;;;;;;5112692;27;20221;-76
2022/11/20 01:47:31;;;;;;;7.20;5.07;;;4.70;99.90;;;;;;5112054;28;20583;-78
2022/11/20 01:50:06;;;;;;;6.83;5.20;;;4.80;99.90;;;;;;5118238;28;20186;-78
2022/11/20 01:52:40;;;;;;;6.77;5.43;;;4.80;99.90;;;;;;5112746;28;20257;-76
2022/11/20 01:55:14;;;;;;;7.17;5.30;;;4.80;99.90;;;;;;5113485;28;20570;-78
2022/11/20 01:57:44;;;;;;;6.30;5.20;;;4.80;99.90;;;;;;5113751;28;20327;-75
2022/11/20 02:00:18;;;;;;;6.47;4.97;;;4.80;99.90;;;;;;5113621;28;20213;-76
2022/11/20 02:02:50;;;;;;;6.30;4.93;;;4.80;99.90;;;;;;5113071;28;20186;-74
2022/11/20 02:05:24;;;;;;;6.03;4.93;;;4.80;99.90;;;;;;5122401;27;20221;-78
2022/11/20 02:07:53;;;;;;;7.67;5.20;;;4.80;99.90;;;;;;5111781;28;20221;-76
2022/11/20 02:10:23;;;;;;;6.47;5.20;;;4.80;99.90;;;;;;5120830;28;20212;-77
2022/11/20 02:15:39;;;;;;;6.47;4.83;;;4.80;99.90;;;;;;5133373;27;20247;-76
2022/11/20 02:18:07;;;;;;;6.90;4.93;;;4.80;99.90;;;;;;5149972;28;20218;-74
2022/11/20 02:20:35;;;;;;;6.07;4.73;;;4.80;99.90;;;;;;5122662;28;20218;-75
2022/11/20 02:23:12;;;;;;;6.50;4.67;;;4.80;99.90;;;;;;5121767;28;20182;-77
2022/11/20 02:25:44;;;;;;;6.13;4.90;;;4.90;99.90;;;;;;5134681;28;20193;-77
2022/11/20 02:28:15;;;;;;;6.93;4.60;;;4.90;99.90;;;;;;5123250;28;20198;-73
2022/11/20 02:30:49;;;;;;;6.50;4.80;;;4.90;99.90;;;;;;5122439;27;20211;-76
2022/11/20 02:33:17;;;;;;;7.27;4.83;;;4.90;99.90;;;;;;5136601;27;20210;-73
2022/11/20 02:35:49;;;;;;;6.23;4.67;;;4.90;99.90;;;;;;5136082;27;20547;-77
2022/11/20 02:38:18;;;;;;;6.20;4.70;;;4.90;99.90;;;;;;5137220;27;20216;-78
2022/11/20 02:40:47;;;;;;;5.37;4.60;;;4.90;99.90;;;;;;5124648;27;20214;-76
2022/11/20 02:43:23;;;;;;;6.87;5.00;;;4.90;99.90;;;;;;5116624;28;20183;-77
2022/11/20 02:45:59;;;;;;;7.00;4.33;;;4.90;99.90;;;;;;5116606;27;20194;-77
2022/11/20 02:48:27;;;;;;;6.27;4.50;;;4.90;99.90;;;;;;5116777;28;20209;-78
2022/11/20 02:51:02;;;;;;;8.27;4.73;;;4.80;99.90;;;;;;5116786;28;20190;-77
2022/11/20 02:53:33;;;;;;;5.30;4.80;;;5.00;99.90;;;;;;5116044;28;20722;-74
2022/11/20 02:56:07;;;;;;;5.67;4.40;;;4.90;99.90;;;;;;5116560;28;20198;-76
2022/11/20 02:58:36;;;;;;;8.37;5.00;;;4.90;99.90;;;;;;5116873;28;20216;-77
2022/11/20 03:01:06;;;;;;;7.87;5.00;;;4.90;99.90;;;;;;5117673;28;20289;-77
2022/11/20 03:03:35;;;;;;;6.73;4.83;;;4.90;99.90;;;;;;5116357;28;20285;-78
2022/11/20 03:06:03;;;;;;;6.10;4.33;;;4.90;99.90;;;;;;5116664;28;20202;-76
2022/11/20 03:08:33;;;;;;;5.30;4.57;;;4.90;99.90;;;;;;5121433;27;20204;-78
2022/11/20 03:11:08;;;;;;;7.40;4.70;;;4.90;99.90;;;;;;5136364;27;20663;-78
2022/11/20 03:13:36;;;;;;;6.20;4.60;;;4.90;99.90;;;;;;5136941;27;20236;-79
2022/11/20 03:16:11;;;;;;;5.23;4.60;;;4.90;99.90;;;;;;5117282;27;20210;-76
2022/11/20 03:18:39;;;;;;;6.90;4.93;;;5.00;99.90;;;;;;5127438;27;20205;-78
2022/11/20 03:21:09;;;;;;;4.87;4.20;;;4.90;99.90;;;;;;5132930;27;20870;-79
2022/11/20 03:23:42;;;;;;;7.03;4.80;;;4.90;99.90;;;;;;5115095;28;20323;-75
2022/11/20 03:26:18;;;;;;;7.63;5.30;;;4.90;99.90;;;;;;5114872;27;20731;-77
2022/11/20 03:28:49;;;;;;;6.57;4.63;;;4.90;99.90;;;;;;5114955;28;20814;-77
2022/11/20 03:31:19;;;;;;;5.23;4.63;;;4.90;99.90;;;;;;5115625;27;20273;-79
2022/11/20 03:33:50;;;;;;;5.73;4.40;;;5.00;99.90;;;;;;5114715;28;20226;-78
2022/11/20 03:36:20;;;;;;;7.03;4.37;;;4.90;99.90;;;;;;5115432;28;20293;-78
2022/11/20 03:38:50;;;;;;;6.13;4.67;;;4.90;99.90;;;;;;5115486;28;20215;-76
2022/11/20 03:41:21;;;;;;;8.70;4.80;;;4.90;99.90;;;;;;5113738;28;20212;-78
2022/11/20 03:43:50;;;;;;;7.60;4.57;;;4.90;99.90;;;;;;5114541;28;20182;-78
2022/11/20 03:46:18;;;;;;;5.77;4.73;;;4.90;99.90;;;;;;5113775;27;20672;-79
2022/11/20 03:48:47;;;;;;;9.13;4.70;;;4.90;99.90;;;;;;5114506;28;20213;-77
2022/11/20 03:51:24;;;;;;;5.60;4.60;;;4.90;99.90;;;;;;5120903;27;20452;-78
2022/11/20 03:53:55;;;;;;;6.43;4.67;;;4.90;99.90;;;;;;5114677;28;20230;-79
2022/11/20 03:56:28;;;;;;;7.23;4.40;;;4.90;99.90;;;;;;5115505;28;20203;-76
2022/11/20 03:58:56;;;;;;;6.00;4.47;;;4.90;99.90;;;;;;5115552;28;20202;-78
2022/11/20 04:01:27;;;;;;;6.93;4.60;;;4.90;99.90;;;;;;5115475;28;20580;-76
2022/11/20 04:03:58;;;;;;;6.43;4.47;;;5.00;99.90;;;;;;5114970;28;20268;-78
2022/11/20 04:06:31;;;;;;;6.20;4.60;;;4.90;99.90;;;;;;5115059;28;20643;-76
2022/11/20 04:09:03;;;;;;;7.57;4.60;;;4.90;99.90;;;;;;5115554;28;20193;-77
2022/11/20 04:11:34;;;;;;;5.40;4.40;;;5.00;99.90;;;;;;5122557;28;20190;-77
2022/11/20 04:14:06;;;;;;;5.87;4.50;;;4.90;99.90;;;;;;5114103;27;20232;-79
2022/11/20 04:16:36;;;;;;;5.33;4.20;;;4.90;99.90;;;;;;5113815;28;20191;-78
2022/11/20 04:19:11;;;;;;;6.73;4.63;;;4.90;99.90;;;;;;5114315;27;20229;-77
2022/11/20 04:21:45;;;;;;;5.63;4.53;;;4.90;99.90;;;;;;5114750;28;20194;-80
2022/11/20 04:24:14;;;;;;;5.53;4.50;;;4.90;99.90;;;;;;5114386;28;20206;-77
2022/11/20 04:26:46;;;;;;;5.13;4.37;;;4.90;99.90;;;;;;5114699;28;20206;-77
2022/11/20 04:29:16;;;;;;;5.57;4.33;;;4.90;99.90;;;;;;5114900;28;20644;-76
2022/11/20 04:31:49;;;;;;;5.57;4.27;;;4.90;99.90;;;;;;5114553;28;20232;-77
2022/11/20 04:34:17;;;;;;;4.90;4.00;;;4.90;99.90;;;;;;5116438;28;20716;-75
2022/11/20 04:36:48;;;;;;;6.73;4.43;;;4.90;99.90;;;;;;5117945;28;20595;-76
2022/11/20 04:39:16;;;;;;;5.40;4.03;;;4.90;99.90;;;;;;5117083;28;20305;-76
2022/11/20 04:41:46;;;;;;;4.87;4.00;;;4.90;99.90;;;;;;5116699;28;20252;-79
2022/11/20 04:44:15;;;;;;;4.73;3.73;;;4.90;99.90;;;;;;5114797;28;20548;-77
2022/11/20 04:46:45;;;;;;;5.30;4.20;;;4.90;99.90;;;;;;5113951;28;20202;-78
2022/11/20 04:49:16;;;;;;;4.13;3.70;;;4.90;99.90;;;;;;5115120;28;20620;-74
2022/11/20 04:51:44;;;;;;;4.37;3.83;;;4.90;99.90;;;;;;5115132;28;20247;-76
2022/11/20 04:54:12;;;;;;;4.47;3.70;;;4.80;99.90;;;;;;5115360;28;20230;-73
2022/11/20 04:56:42;;;;;;;6.03;3.60;;;4.90;99.90;;;;;;5116579;28;20202;-75
2022/11/20 04:59:16;;;;;;;5.07;3.93;;;4.90;99.90;;;;;;5116631;28;20226;-75
2022/11/20 05:01:44;;;;;;;5.97;3.57;;;4.90;99.90;;;;;;5117834;28;20606;-78
2022/11/20 05:04:13;;;;;;;4.70;3.77;;;4.90;99.90;;;;;;5115610;28;20206;-76
2022/11/20 05:06:41;;;;;;;4.20;3.80;;;4.80;99.90;;;;;;5127966;27;20201;-77
2022/11/20 05:09:16;;;;;;;5.83;3.40;;;4.90;99.90;;;;;;5138414;27;20202;-77
2022/11/20 05:11:45;;;;;;;4.57;3.57;;;4.90;99.90;;;;;;5135383;27;20213;-79
2022/11/20 05:14:19;;;;;;;5.47;3.83;;;4.80;99.90;;;;;;5114993;27;20242;-80
2022/11/20 05:16:49;;;;;;;4.07;3.33;;;4.90;99.90;;;;;;5114078;28;20605;-78
2022/11/20 05:19:17;;;;;;;4.07;3.47;;;4.80;99.90;;;;;;5113136;28;20229;-79
2022/11/20 05:21:47;;;;;;;4.57;3.70;;;4.80;99.90;;;;;;5120773;27;20217;-81
2022/11/20 05:24:15;;;;;;;4.33;3.50;;;4.90;99.90;;;;;;5113123;28;20586;-79
2022/11/20 05:26:48;;;;;;;3.87;3.40;;;4.90;99.90;;;;;;5112402;28;20248;-78
2022/11/20 05:29:16;;;;;;;5.03;3.77;;;4.90;99.90;;;;;;5113182;28;20198;-79
2022/11/20 05:31:45;;;;;;;7.87;3.50;;;4.90;99.90;;;;;;5112611;28;20736;-80
2022/11/20 05:34:14;;;;;;;4.40;3.40;;;5.00;99.90;;;;;;5112382;28;20218;-79
2022/11/20 05:36:42;;;;;;;3.83;3.20;;;4.90;99.90;;;;;;5113193;28;20209;-77
2022/11/20 05:39:10;;;;;;;5.13;4.00;;;4.90;99.90;;;;;;5113343;28;20213;-78
2022/11/20 05:41:38;;;;;;;5.40;3.43;;;4.90;99.90;;;;;;5112737;28;20213;-78
2022/11/20 05:44:08;;;;;;;5.60;3.93;;;4.90;99.90;;;;;;5112862;28;20544;-77
2022/11/20 05:46:38;;;;;;;4.03;3.53;;;4.90;99.90;;;;;;5113374;28;20222;-77
2022/11/20 05:49:08;;;;;;;6.23;3.67;;;4.90;99.90;;;;;;5113068;28;20202;-77
2022/11/20 05:51:36;;;;;;;5.77;3.87;;;4.90;99.90;;;;;;5113672;28;20210;-77
2022/11/20 05:54:06;;;;;;;4.17;3.70;;;4.90;99.90;;;;;;5112879;28;20695;-77
2022/11/20 05:56:36;;;;;;;5.07;3.47;;;4.80;99.90;;;;;;5112747;28;20202;-79
2022/11/20 05:59:06;;;;;;;5.13;3.73;;;4.80;99.90;;;;;;5112543;28;20675;-77
2022/11/20 06:01:35;;;;;;;5.37;3.60;;;4.80;99.90;;;;;;5112793;28;20686;-78
2022/11/20 06:04:10;;;;;;;3.87;3.43;;;4.80;99.90;;;;;;5116380;28;20557;-78
2022/11/20 06:06:38;;;;;;;4.20;3.33;;;4.80;99.90;;;;;;5133281;28;20217;-78
2022/11/20 06:09:10;;;;;;;4.80;3.40;;;4.80;99.90;;;;;;5132850;28;20213;-77
2022/11/20 06:11:38;;;;;;;4.80;3.70;;;4.80;99.90;;;;;;5114402;27;20202;-79
2022/11/20 06:14:06;;;;;;;4.17;3.60;;;4.70;99.90;;;;;;5110793;28;20225;-78
2022/11/20 06:16:35;;;;;;;5.87;3.50;;;4.70;99.90;;;;;;5111459;28;20209;-79
2022/11/20 06:19:04;;;;;;;5.47;3.10;;;4.80;99.90;;;;;;5112193;28;20210;-78
2022/11/20 06:21:34;;;;;;;5.60;3.70;;;4.70;99.90;;;;;;5130921;27;20566;-77
2022/11/20 06:24:02;;;;;;;4.23;3.53;;;4.70;99.90;;;;;;5130459;27;20208;-79
2022/11/20 06:26:34;;;;;;;4.13;3.40;;;4.70;99.90;;;;;;5122616;27;20206;-78
2022/11/20 06:29:02;;;;;;;5.73;3.40;;;4.70;99.90;;;;;;5110998;27;20479;-79
2022/11/20 06:31:32;;;;;;;4.77;3.80;;;4.70;99.90;;;;;;5111212;28;20419;-77
2022/11/20 06:34:05;;;;;;;5.57;3.33;;;4.60;99.90;;;;;;5119944;27;20240;-78
2022/11/20 06:36:37;;;;;;;4.60;3.40;;;4.60;99.90;;;;;;5118551;27;20206;-78
2022/11/20 06:39:05;;;;;;;6.30;3.30;;;4.60;99.90;;;;;;5125509;27;20298;-76
2022/11/20 06:41:33;;;;;;;5.37;3.50;;;4.60;99.90;;;;;;5131553;28;20202;-80
2022/11/20 06:44:05;;;;;;;4.97;3.40;;;4.50;99.90;;;;;;5131619;28;20605;-79
2022/11/20 06:46:36;;;;;;;3.83;3.13;;;4.50;99.90;;;;;;5132196;28;20201;-78
2022/11/20 06:49:04;;;;;;;3.53;2.73;;;4.50;99.90;;;;;;5132404;28;20217;-77
2022/11/20 06:51:36;;;;;;;3.47;3.10;;;4.50;99.90;;;;;;5131462;28;20227;-79
2022/11/20 06:54:04;;;;;;;3.47;3.00;;;4.50;99.90;;;;;;5131629;28;20229;-79
2022/11/20 06:56:34;;;;;;;3.73;3.00;;;4.50;99.90;;;;;;5128913;27;20211;-77
2022/11/20 06:59:06;;;;;;;3.93;3.10;;;4.60;99.90;;;;;;5110647;28;20679;-78
2022/11/20 07:01:36;;;;;;;6.03;3.23;;;4.60;99.90;;;;;;5110592;28;20221;-78
2022/11/20 07:04:04;;;;;;;7.43;3.40;;;4.60;99.90;;;;;;5125352;28;20201;-75
2022/11/20 07:06:36;;;;;;;3.93;3.20;;;4.70;99.90;;;;;;5132841;28;20190;-73
2022/11/20 07:09:04;;;;;;;4.57;3.40;;;4.70;99.90;;;;;;5130748;27;20206;-76
2022/11/20 07:11:39;;;;;;;4.83;3.30;;;4.70;99.90;;;;;;5122100;27;20233;-75
2022/11/20 07:14:11;;;;;;;4.27;3.20;;;4.80;99.90;;;;;;5117645;28;20221;-80
2022/11/20 07:16:39;;;;;;;4.03;2.93;;;4.80;99.90;;;;;;5115097;28;20641;-76
2022/11/20 07:19:09;;;;;;;4.60;3.30;;;4.80;99.90;;;;;;5114772;28;20280;-77
2022/11/20 07:21:38;;;;;;;6.23;3.07;;;4.90;99.90;;;;;;5114034;28;20190;-79
2022/11/20 07:24:07;;;;;;;4.40;2.73;;;4.80;99.90;;;;;;5115440;28;20245;-78
2022/11/20 07:26:37;;;;;;;4.20;3.17;;;4.90;99.90;;;;;;5114315;28;20202;-77
2022/11/20 07:29:06;;;;;;;4.00;2.80;;;4.90;99.90;;;;;;5114655;27;20566;-76
2022/11/20 07:31:35;;;;;;;4.13;3.30;;;4.90;99.90;;;;;;5113979;28;20210;-77
2022/11/20 07:34:03;;;;;;;3.40;3.10;;;4.90;99.90;;;;;;5114286;28;20229;-78
2022/11/20 07:36:33;;;;;;;4.33;2.90;;;5.00;99.90;;;;;;5134747;27;20565;-76
2022/11/20 07:39:02;;;;;;;3.67;3.03;;;5.00;99.90;;;;;;5134945;27;20208;-78
2022/11/20 07:41:31;;;;;;;4.27;3.00;;;5.10;99.90;;;;;;5135029;27;20201;-79
2022/11/20 07:44:10;;;;;;;3.40;2.70;;;5.10;99.90;;;;;;5134143;27;20221;-78
2022/11/20 07:46:46;;;;;;;4.17;2.83;;;5.10;99.90;;;;;;5135400;27;20197;-79
2022/11/20 07:49:14;;;;;;;4.97;3.70;;;5.10;99.90;;;;;;5134815;27;20208;-79
2022/11/20 07:51:44;;;;;;;4.43;3.57;;;5.00;99.90;;;;;;5135080;27;20655;-77
2022/11/20 07:54:21;;;;;;;5.53;3.63;;;5.20;99.90;;;;;;5138222;27;20229;-75
2022/11/20 07:56:49;;;;;;;4.60;3.50;;;5.20;99.90;;;;;;5139070;27;20662;-78
2022/11/20 07:59:17;;;;;;;3.67;2.80;;;5.20;99.90;;;;;;5139430;27;20575;-75
2022/11/20 08:01:48;;;;;;;3.13;2.63;;;5.20;99.90;;;;;;5129149;27;20209;-77
2022/11/20 08:04:20;;;;;;;3.83;2.70;;;5.30;99.90;;;;;;5131832;27;20228;-76
2022/11/20 08:06:52;;;;;;;3.07;2.73;;;5.20;99.90;;;;;;5119089;27;20233;-76
2022/11/20 08:09:22;;;;;;;4.77;2.40;;;5.20;99.90;;;;;;5120982;27;20214;-75
2022/11/20 08:14:39;;;;;;;4.00;3.20;;;5.30;99.90;;;;;;5115231;28;20233;-79
2022/11/20 08:17:08;;;;;;;3.97;3.37;;;5.40;99.90;;;;;;5117267;27;20210;-77
2022/11/20 08:19:36;;;;;;;4.63;4.10;;;5.50;99.90;;;;;;5134229;27;20213;-77
2022/11/20 08:22:04;;;;;;;5.10;3.70;;;5.50;99.90;;;;;;5133742;27;20237;-77
2022/11/20 08:24:34;;;;;;;5.33;3.50;;;5.60;99.90;;;;;;5116821;27;20217;-74
2022/11/20 08:27:03;;;;;;;6.17;4.87;;;5.60;99.90;;;;;;5114058;28;20664;-74
2022/11/20 08:29:31;;;;;;;5.93;4.57;;;5.70;99.90;;;;;;5114173;28;20702;-75
2022/11/20 08:31:59;;;;;;;11.40;6.80;;;5.80;99.90;;;;;;5117206;28;20660;-74
2022/11/20 08:34:27;;;;;;;10.50;7.73;;;5.70;99.90;;;;;;5116786;28;20221;-77
2022/11/20 08:36:58;;;;;;;6.53;4.30;;;5.80;99.90;;;;;;5113208;27;20572;-78
2022/11/20 08:39:28;;;;;;;4.07;3.20;;;5.90;99.90;;;;;;5113012;28;20559;-77
2022/11/20 08:41:58;;;;;;;6.73;5.20;;;5.90;99.90;;;;;;5113106;28;20264;-78
2022/11/20 08:44:26;;;;;;;5.10;3.43;;;5.90;99.90;;;;;;5116252;27;20217;-76
2022/11/20 08:46:54;;;;;;;7.13;5.40;;;6.00;99.90;;;;;;5135559;27;20213;-78
2022/11/20 08:49:22;;;;;;;8.50;6.60;;;5.90;99.90;;;;;;5138492;27;20202;-78
2022/11/20 08:51:54;;;;;;;11.70;8.27;;;6.00;99.90;;;;;;5139774;27;20205;-76
2022/11/20 08:54:32;;;;;;;8.33;6.10;;;6.10;99.90;;;;;;5140047;27;20294;-78
2022/11/20 08:57:02;;;;;;;11.27;8.23;;;6.00;99.90;;;;;;5135981;27;20201;-78
2022/11/20 08:59:31;;;;;;;5.37;3.57;;;6.10;99.90;;;;;;5134228;27;20229;-77
2022/11/20 09:02:19;;;;;;;5.93;4.20;;;6.10;99.90;;;;;;5133990;27;20209;-76
2022/11/20 09:04:49;;;;;;;5.13;2.93;;;6.10;99.90;;;;;;5134245;27;20209;-81
2022/11/20 09:07:19;;;;;;;3.40;2.90;;;6.20;99.90;;;;;;5127332;27;20213;-80
2022/11/20 09:09:47;;;;;;;3.17;2.67;;;6.10;99.90;;;;;;5112478;28;20676;-77
2022/11/20 09:12:37;;;;;;;4.70;2.83;;;6.10;99.90;;;;;;5111986;28;20707;-80
2022/11/20 09:15:06;;;;;;;7.80;5.37;;;6.00;99.90;;;;;;5113214;28;20309;-77
2022/11/20 09:17:34;;;;;;;4.13;2.90;;;6.00;99.90;;;;;;5112886;28;20213;-74
2022/11/20 09:20:05;;;;;;;5.23;3.17;;;6.00;99.90;;;;;;5112077;27;20602;-79
2022/11/20 09:22:40;;;;;;;3.13;2.70;;;6.00;99.90;;;;;;5110695;27;20679;-79
2022/11/20 09:25:09;;;;;;;3.57;2.90;;;6.00;99.90;;;;;;5113066;28;20210;-77
2022/11/20 09:27:38;;;;;;;3.53;2.80;;;6.10;99.90;;;;;;5113090;28;20210;-80
2022/11/20 09:30:08;;;;;;;2.80;2.50;;;6.10;99.90;;;;;;5113285;28;20214;-78
2022/11/20 09:32:39;;;;;;;3.50;3.00;;;6.10;99.90;;;;;;5112342;28;20210;-78
2022/11/20 09:35:09;;;;;;;3.90;3.10;;;6.20;99.90;;;;;;5131073;27;20317;-77
2022/11/20 09:37:37;;;;;;;3.90;2.90;;;6.10;99.90;;;;;;5130504;27;20216;-78
2022/11/20 09:40:06;;;;;;;6.57;4.13;;;6.20;99.90;;;;;;5132068;27;20212;-77
2022/11/20 09:42:42;;;;;;;3.97;2.67;;;6.30;99.90;;;;;;5111336;28;20198;-79
2022/11/20 09:45:24;;;;;;;4.37;3.03;;;6.30;99.90;;;;;;5112396;28;20206;-79
2022/11/20 09:48:11;;;;;;;3.27;2.23;;;6.30;99.90;;;;;;5113142;28;20209;-76
2022/11/20 09:50:48;;;;;;;3.30;2.40;;;6.40;99.90;;;;;;5112900;28;20225;-80
2022/11/20 09:53:27;;;;;;;2.80;2.40;;;6.40;99.90;;;;;;5111939;28;20213;-77
2022/11/20 09:55:57;;;;;;;4.17;2.43;;;6.50;99.90;;;;;;5111856;28;20233;-79
2022/11/20 09:58:34;;;;;;;2.70;2.30;;;6.50;99.90;;;;;;5112016;28;20214;-77
2022/11/20 10:01:10;;;;;;;3.27;2.73;;;6.70;99.90;;;;;;5112119;28;20214;-78
2022/11/20 10:03:47;;;;;;;3.40;2.80;;;6.80;99.90;;;;;;5111625;28;20276;-76
2022/11/20 10:06:19;;;;;;;4.13;2.57;;;6.70;99.90;;;;;;5123325;27;20228;-74
2022/11/20 10:08:57;;;;;;;4.57;2.70;;;6.90;99.90;;;;;;5111794;28;20209;-77
2022/11/20 10:11:34;;;;;;;3.60;2.87;;;6.90;99.90;;;;;;5111976;28;20179;-78
2022/11/20 10:14:16;;;;;;;3.00;2.63;;;6.80;99.90;;;;;;5111778;28;20241;-78
2022/11/20 10:16:53;;;;;;;3.97;2.47;;;6.80;99.90;;;;;;5111997;27;20222;-75
2022/11/20 10:19:42;;;;;;;2.57;2.20;;;6.70;99.90;;;;;;5132367;28;20197;-76
2022/11/20 10:22:21;;;;;;;6.00;2.60;;;6.80;99.90;;;;;;5132568;28;20469;-80
2022/11/20 10:24:57;;;;;;;3.03;2.30;;;6.80;99.90;;;;;;5115814;27;20567;-76
2022/11/20 10:27:54;;;;;;;3.13;2.47;;;6.80;99.90;;;;;;5112336;28;20202;-77
2022/11/20 10:30:25;;;;;;;2.43;2.10;;;6.90;99.90;;;;;;5111489;28;20637;-76
2022/11/20 10:32:56;;;;;;;3.40;2.27;;;6.80;99.90;;;;;;5115652;28;20639;-75
2022/11/20 10:35:28;;;;;;;4.70;3.47;;;6.80;99.90;;;;;;5111125;28;20202;-78
2022/11/20 10:38:04;;;;;;;4.70;2.70;;;6.80;99.90;;;;;;5112269;28;20702;-80
2022/11/20 10:40:36;;;;;;;2.63;2.40;;;6.90;99.90;;;;;;5112056;28;20206;-75
2022/11/20 10:43:12;;;;;;;2.70;2.27;;;7.00;99.90;;;;;;5112212;28;20194;-76
2022/11/20 10:45:58;;;;;;;3.53;2.27;;;7.30;99.90;;;;;;5115298;28;20204;-78
2022/11/20 10:48:28;;;;;;;2.60;2.17;;;7.40;99.90;;;;;;5108486;28;20516;-78
2022/11/20 10:51:07;;;;;;;4.27;2.00;;;7.50;99.90;;;;;;5143520;27;20202;-77
2022/11/20 10:54:00;;;;;;;2.60;2.10;;;7.50;99.90;;;;;;5114000;27;20210;-78
2022/11/20 10:56:36;;;;;;;3.63;2.30;;;7.60;99.90;;;;;;5107336;28;20253;-79
2022/11/20 10:59:39;;;;;;;2.67;1.97;;;7.60;99.90;;;;;;5115178;28;20667;-79
2022/11/20 11:02:20;;;;;;;3.23;2.43;;;7.60;99.90;;;;;;5110971;27;20681;-77
2022/11/20 11:04:51;;;;;;;2.57;1.90;;;7.50;99.90;;;;;;5118350;27;20197;-76
2022/11/20 11:07:23;;;;;;;3.33;2.10;;;7.60;99.90;;;;;;5120702;27;20202;-79
2022/11/20 11:09:57;;;;;;;3.27;2.27;;;7.80;99.90;;;;;;5115225;27;20291;-76
2022/11/20 11:12:27;;;;;;;3.53;2.50;;;7.90;99.90;;;;;;5119107;28;20248;-78
2022/11/20 11:14:58;;;;;;;2.90;2.20;;;8.00;99.90;;;;;;5125003;27;20300;-78
2022/11/20 11:17:30;;;;;;;3.87;2.17;;;8.20;99.90;;;;;;5135469;27;20302;-77
2022/11/20 11:20:07;;;;;;;2.00;1.70;;;8.40;99.90;;;;;;5135702;27;20634;-76
2022/11/20 11:22:45;;;;;;;1.80;1.70;;;8.30;99.90;;;;;;5136053;27;20201;-75
2022/11/20 11:25:25;;;;;;;2.23;1.60;;;8.20;99.90;;;;;;5137223;27;20631;-75
2022/11/20 11:28:00;;;;;;;2.10;1.90;;;8.20;99.90;;;;;;5136499;27;20185;-78
2022/11/20 11:30:31;;;;;;;2.43;1.90;;;8.20;99.90;;;;;;5136609;27;20205;-80
2022/11/20 11:33:10;;;;;;;2.03;1.80;;;8.00;99.90;;;;;;5135585;27;20190;-79
2022/11/20 11:35:46;;;;;;;2.50;1.67;;;8.00;99.90;;;;;;5132705;27;20220;-77
2022/11/20 11:38:23;;;;;;;2.03;1.60;;;8.10;99.90;;;;;;5115355;28;20550;-78
2022/11/20 11:40:56;;;;;;;1.97;1.50;;;8.00;99.90;;;;;;5124477;27;20663;-74
2022/11/20 11:46:28;;;;;;;2.63;1.67;;;7.90;99.90;;;;;;5136285;27;20190;-74
2022/11/20 11:48:58;;;;;;;1.70;1.60;;;7.90;99.90;;;;;;5127258;27;20230;-78
2022/11/20 11:51:37;;;;;;;1.70;1.60;;;7.80;99.90;;;;;;5135541;27;20205;-75
2022/11/20 11:54:16;;;;;;;2.50;1.50;;;7.70;99.90;;;;;;5113789;28;20245;-76
2022/11/20 11:56:46;;;;;;;4.23;1.40;;;7.60;99.90;;;;;;5128338;27;20213;-80
2022/11/20 11:59:25;;;;;;;1.43;1.30;;;7.50;99.90;;;;;;5131353;27;20229;-79
2022/11/20 12:01:59;;;;;;;1.70;1.33;;;7.80;99.90;;;;;;5100855;27;20226;-73
2022/11/20 12:04:46;;;;;;;1.40;1.30;;;7.70;99.90;;;;;;5116247;27;20217;-74
2022/11/20 12:07:21;;;;;;;1.63;1.27;;;7.70;99.90;;;;;;5114944;27;20297;-77
2022/11/20 12:10:16;;;;;;;2.70;1.30;;;7.60;99.90;;;;;;5114709;28;20206;-77
2022/11/20 12:12:49;;;;;;;1.40;1.30;;;7.60;99.90;;;;;;5115629;28;20222;-77
2022/11/20 12:15:33;;;;;;;1.80;1.50;;;7.60;99.90;;;;;;5119722;27;20202;-78
2022/11/20 12:18:02;;;;;;;1.60;1.50;;;7.60;99.90;;;;;;5135351;27;20213;-77
2022/11/20 12:20:40;;;;;;;1.87;1.60;;;7.60;99.90;;;;;;5126416;27;20234;-75
2022/11/20 12:23:27;;;;;;;2.93;1.50;;;7.40;99.90;;;;;;5115413;28;20207;-77
2022/11/20 12:26:01;;;;;;;2.13;1.87;;;7.30;99.90;;;;;;5116035;28;20194;-74
2022/11/20 12:28:43;;;;;;;2.87;2.13;;;7.20;99.90;;;;;;5124375;27;20628;-73
2022/11/20 12:31:42;;;;;;;3.50;2.00;;;7.00;99.90;;;;;;5115206;27;20199;-76
2022/11/20 12:34:25;;;;;;;2.13;1.70;;;7.20;99.90;;;;;;5116059;27;20224;-75
2022/11/20 12:37:06;;;;;;;1.67;1.53;;;7.10;99.90;;;;;;5121598;27;20210;-76
2022/11/20 12:39:42;;;;;;;2.63;1.77;;;6.80;99.90;;;;;;5108354;27;20197;-75
2022/11/20 12:46:07;;;;;;;2.67;1.73;;;6.40;99.90;;;;;;5049349;28;20223;-78
2022/11/20 12:48:58;;;;;;;2.17;1.80;;;6.20;99.90;;;;;;5030520;28;20697;-74
2022/11/20 12:51:39;;;;;;;4.13;3.57;;;6.10;99.90;;;;;;5096537;28;20691;-78
2022/11/20 12:54:32;;;;;;;3.20;2.83;;;6.20;99.90;;;;;;5115099;27;20221;-77
2022/11/20 12:57:07;;;;;;;18.80;15.43;;;6.30;99.90;;;;;;5123363;27;20738;-76
2022/11/20 12:59:53;;;;;;;4.63;2.90;;;6.30;99.90;;;;;;5114093;28;20229;-74
2022/11/20 13:02:29;;;;;;;6.27;5.53;;;6.40;99.90;;;;;;5114716;28;20226;-78
2022/11/20 13:05:11;;;;;;;3.90;2.60;;;6.60;99.90;;;;;;5116347;27;20222;-72
2022/11/20 13:07:39;;;;;;;4.67;4.00;;;6.60;99.90;;;;;;5114629;28;20498;-75
2022/11/20 13:10:21;;;;;;;2.30;2.10;;;6.70;99.90;;;;;;5114893;28;20228;-77
2022/11/20 13:13:07;;;;;;;2.13;1.80;;;6.80;99.90;;;;;;5113684;28;20228;-77
2022/11/20 13:15:49;;;;;;;3.20;2.53;;;6.80;99.90;;;;;;5114692;27;20588;-79
2022/11/20 13:18:22;;;;;;;4.10;3.63;;;6.80;99.90;;;;;;5105648;27;20260;-77
2022/11/20 13:20:51;;;;;;;2.00;1.80;;;6.80;99.90;;;;;;5125764;27;20285;-76
2022/11/20 13:23:27;;;;;;;2.27;1.97;;;6.80;99.90;;;;;;5112403;27;20582;-78
2022/11/20 13:26:16;;;;;;;3.53;2.33;;;6.80;99.90;;;;;;5112740;27;20206;-78
2022/11/20 13:28:47;;;;;;;4.73;3.10;;;6.70;99.90;;;;;;5114510;27;20686;-77
2022/11/20 13:31:43;;;;;;;2.87;2.60;;;6.60;99.90;;;;;;5112987;28;20214;-76
2022/11/20 13:34:23;;;;;;;2.43;2.20;;;6.60;99.90;;;;;;5100954;27;20274;-76
2022/11/20 13:36:56;;;;;;;2.40;2.20;;;6.60;99.90;;;;;;5112642;28;20655;-75
2022/11/20 13:39:27;;;;;;;4.63;2.93;;;6.60;99.90;;;;;;5112343;27;20217;-78
2022/11/20 13:41:58;;;;;;;2.17;1.90;;;6.50;99.90;;;;;;5112242;28;20206;-78